Ryoho Maru No.2 — JD2964 — position and weather

sailwx.info

Track history (hours):
 
Tides and Currents Weather Stations Pressure Air Temp Water Temp Dewpoint Dewpoint Depression Visibility Wind Speed Wind Dir Waves Ship Positions

Ryoho Maru No.2

Last reported at 2015-Aug-26 19:26 UTC. Time now 2015-Sep-01 22:20 UTC.
Position N 35°41' E 140°54'.

Length 57 m; draft 4 m.

Type: Tanker. MMSI: 431001062.

Date/timePositionNaut miles runAvg speedWind from/ knotsBaromVisibWave heightAir tempDewpointWater temp
2015-Aug-26 19:26N 35°41' E 140°54'7 8.0
2015-Aug-26 18:33N 35°36' E 140°49'9 8.6
2015-Aug-26 17:29N 35°28' E 140°42'9 8.8
2015-Aug-26 16:25N 35°21' E 140°35'8 9.4
2015-Aug-26 15:32N 35°14' E 140°29'19 9.7
2015-Aug-26 13:34N 35°01' E 140°12'9 8.7
2015-Aug-26 12:33N 34°56' E 140°03'14 7.1
2015-Aug-26 10:32N 34°55' E 139°46'9 9.0
2015-Aug-26 09:33N 35°03' E 139°44'1110.6
2015-Aug-26 08:34N 35°14' E 139°47'1010.0
2015-Aug-26 07:33N 35°23' E 139°43'10 9.9
2015-Aug-26 06:33N 35°30' E 139°52'6 5.3
2015-Aug-26 05:22N 35°29' E 139°60'0 0.0
2015-Aug-26 04:28N 35°29' E 139°60'0 0.0
2015-Aug-26 03:28N 35°29' E 139°60'0 0.0
2015-Aug-26 02:28N 35°29' E 139°60'0 0.0
2015-Aug-26 01:22N 35°29' E 139°60'0 0.0
2015-Aug-26 00:25N 35°29' E 139°60'0 0.1
2015-Aug-25 23:28N 35°29' E 139°60'0 0.0
2015-Aug-25 22:25N 35°29' E 139°60'0 0.0
2015-Aug-25 21:28N 35°29' E 139°60'0 0.0
2015-Aug-25 20:19N 35°29' E 139°59'0 0.0
2015-Aug-25 19:31N 35°29' E 139°59'0 0.0
2015-Aug-25 18:31N 35°29' E 139°59'0 0.0
2015-Aug-25 17:31N 35°29' E 139°59'0 0.0
2015-Aug-25 16:28N 35°29' E 139°59'0 0.0
2015-Aug-25 15:28N 35°29' E 139°59'0 0.0
2015-Aug-25 14:28N 35°29' E 139°59'0 0.0
2015-Aug-25 13:31N 35°29' E 139°59'0 0.0
2015-Aug-25 12:28N 35°29' E 139°59'2 1.7
2015-Aug-25 11:30N 35°28' E 140°01'0 0.0
2015-Aug-25 10:30N 35°28' E 140°01'0 0.0
2015-Aug-25 09:30N 35°28' E 140°01'0 0.0
2015-Aug-25 08:18N 35°28' E 140°01'0 0.0
2015-Aug-25 07:30N 35°28' E 140°01'0 0.0
2015-Aug-25 06:30N 35°28' E 140°01'1 0.8
2015-Aug-25 05:33N 35°29' E 140°01'10 9.7
2015-Aug-25 04:33N 35°30' E 139°49'3 3.2
2015-Aug-25 03:33N 35°32' E 139°45'0 0.0
2015-Aug-25 02:33N 35°32' E 139°45'0 0.0
2015-Aug-25 01:33N 35°32' E 139°45'0 0.0
2015-Aug-25 00:33N 35°32' E 139°45'1 1.3
2015-Aug-24 23:33N 35°31' E 139°46'3 2.5
2015-Aug-24 22:31N 35°30' E 139°49'0 0.0
2015-Aug-24 21:31N 35°30' E 139°49'0 0.0
2015-Aug-24 20:28N 35°30' E 139°49'0 0.0
2015-Aug-24 19:31N 35°30' E 139°49'0 0.0
2015-Aug-24 18:28N 35°30' E 139°49'0 0.0
2015-Aug-24 17:31N 35°30' E 139°49'0 0.0
2015-Aug-24 16:31N 35°30' E 139°49'0 0.0
2015-Aug-24 15:31N 35°30' E 139°49'0 0.0
2015-Aug-24 14:25N 35°30' E 139°49'0 0.0
2015-Aug-24 13:31N 35°30' E 139°49'0 0.0
2015-Aug-24 12:25N 35°30' E 139°49'0 0.0
2015-Aug-24 11:28N 35°30' E 139°49'0 0.0
2015-Aug-24 10:28N 35°30' E 139°49'0 0.0
2015-Aug-24 09:31N 35°30' E 139°49'0 0.0
2015-Aug-24 08:31N 35°30' E 139°49'0 0.0
2015-Aug-24 07:31N 35°30' E 139°49'0 0.0
2015-Aug-24 06:31N 35°30' E 139°49'0 0.0
2015-Aug-24 05:31N 35°30' E 139°49'0 0.0
2015-Aug-24 04:28N 35°30' E 139°49'0 0.0
2015-Aug-24 03:31N 35°30' E 139°49'0 0.0
2015-Aug-24 02:31N 35°30' E 139°49'0 0.0
2015-Aug-24 01:31N 35°30' E 139°49'0 0.0
2015-Aug-24 00:31N 35°30' E 139°49'0 0.0
2015-Aug-23 23:31N 35°30' E 139°49'0 0.0
2015-Aug-23 22:31N 35°30' E 139°49'0 0.0
2015-Aug-23 21:28N 35°30' E 139°49'0 0.0
2015-Aug-23 20:31N 35°30' E 139°49'0 0.0
2015-Aug-23 19:31N 35°30' E 139°49'0 0.0
2015-Aug-23 18:31N 35°30' E 139°49'0 0.0
2015-Aug-23 17:28N 35°30' E 139°49'0 0.0
2015-Aug-23 16:28N 35°30' E 139°49'0 0.0
2015-Aug-23 15:31N 35°30' E 139°49'0 0.0
2015-Aug-23 14:28N 35°30' E 139°49'0 0.0
2015-Aug-23 13:22N 35°30' E 139°49'0 0.0
2015-Aug-23 12:28N 35°30' E 139°49'0 0.0
2015-Aug-23 11:31N 35°30' E 139°49'0 0.0
2015-Aug-23 10:31N 35°30' E 139°49'0 0.0
2015-Aug-23 09:28N 35°30' E 139°49'0 0.0
2015-Aug-23 08:28N 35°30' E 139°49'0 0.0
2015-Aug-23 07:28N 35°30' E 139°49'0 0.0
2015-Aug-23 06:31N 35°30' E 139°49'0 0.0
2015-Aug-23 05:31N 35°30' E 139°49'0 0.0
2015-Aug-23 04:28N 35°30' E 139°49'0 0.0
2015-Aug-23 03:31N 35°30' E 139°49'0 0.0
2015-Aug-23 02:28N 35°30' E 139°49'0 0.0
2015-Aug-23 01:25N 35°30' E 139°49'0 0.0
2015-Aug-23 00:16N 35°30' E 139°49'0 0.0
2015-Aug-22 23:28N 35°30' E 139°49'0 0.0
2015-Aug-22 22:13N 35°30' E 139°49'0 0.0
2015-Aug-22 21:25N 35°30' E 139°49'0 0.0
2015-Aug-22 20:28N 35°30' E 139°49'0 0.0
2015-Aug-22 19:31N 35°30' E 139°49'0 0.0
2015-Aug-22 18:28N 35°30' E 139°49'0 0.0
2015-Aug-22 17:25N 35°30' E 139°49'0 0.0
2015-Aug-22 16:31N 35°30' E 139°49'0 0.0
2015-Aug-22 15:28N 35°30' E 139°49'0 0.0
2015-Aug-22 14:28N 35°30' E 139°49'0 0.0
2015-Aug-22 13:28N 35°30' E 139°49'0 0.0
2015-Aug-22 12:28N 35°30' E 139°50'0 0.0
2015-Aug-22 11:28N 35°30' E 139°50'0 0.0
2015-Aug-22 10:28N 35°30' E 139°50'0 0.0
2015-Aug-22 09:28N 35°30' E 139°50'0 0.0
2015-Aug-22 08:28N 35°30' E 139°50'0 0.0
2015-Aug-22 07:28N 35°30' E 139°50'0 0.0
2015-Aug-22 06:28N 35°30' E 139°50'0 0.0
2015-Aug-22 05:28N 35°30' E 139°50'0 0.0
2015-Aug-22 04:10N 35°30' E 139°50'0 0.0
2015-Aug-22 03:25N 35°30' E 139°50'0 0.0
2015-Aug-22 02:28N 35°30' E 139°50'0 0.0
2015-Aug-22 01:28N 35°30' E 139°50'0 0.0
2015-Aug-22 00:22N 35°30' E 139°50'0 0.0
2015-Aug-21 23:28N 35°30' E 139°50'0 0.0
2015-Aug-21 22:31N 35°30' E 139°50'0 0.0
2015-Aug-21 21:31N 35°30' E 139°50'0 0.0
2015-Aug-21 20:28N 35°30' E 139°50'0 0.0
2015-Aug-21 19:16N 35°30' E 139°50'0 0.0
2015-Aug-21 18:28N 35°30' E 139°50'0 0.0
2015-Aug-21 17:31N 35°30' E 139°50'0 0.0
2015-Aug-21 16:25N 35°30' E 139°50'0 0.0
2015-Aug-21 15:22N 35°30' E 139°50'0 0.0
2015-Aug-21 14:28N 35°30' E 139°50'0 0.0
2015-Aug-21 13:22N 35°30' E 139°50'0 0.0
2015-Aug-21 12:31N 35°30' E 139°50'0 0.0
2015-Aug-21 11:31N 35°30' E 139°50'0 0.0
2015-Aug-21 10:31N 35°30' E 139°50'0 0.0
2015-Aug-21 09:31N 35°30' E 139°50'0 0.0
2015-Aug-21 08:31N 35°30' E 139°50'0 0.0
2015-Aug-21 07:31N 35°30' E 139°49'0 0.0
2015-Aug-21 06:31N 35°30' E 139°49'0 0.0
2015-Aug-21 05:31N 35°30' E 139°49'0 0.0
2015-Aug-21 04:28N 35°30' E 139°49'0 0.0
2015-Aug-21 03:31N 35°30' E 139°49'0 0.0
2015-Aug-21 02:28N 35°30' E 139°49'0 0.0
2015-Aug-21 01:31N 35°30' E 139°49'0 0.0
2015-Aug-21 00:31N 35°30' E 139°49'0 0.0
2015-Aug-20 23:31N 35°30' E 139°49'0 0.0
2015-Aug-20 22:25N 35°30' E 139°49'0 0.0
2015-Aug-20 21:28N 35°30' E 139°49'0 0.0
2015-Aug-20 20:28N 35°30' E 139°49'0 0.0
2015-Aug-20 19:31N 35°30' E 139°49'0 0.0
2015-Aug-20 18:31N 35°30' E 139°49'0 0.0
2015-Aug-20 17:31N 35°30' E 139°49'0 0.0
2015-Aug-20 16:28N 35°30' E 139°49'6 6.9
2015-Aug-20 15:33N 35°24' E 139°46'9 8.7
2015-Aug-20 14:34N 35°16' E 139°47'9 9.4
2015-Aug-20 13:34N 35°06' E 139°46'10 9.9
2015-Aug-20 12:33N 34°56' E 139°44'10 8.4
2015-Aug-20 11:19N 34°53' E 139°56'7 9.7
2015-Aug-20 10:34N 34°57' E 140°04'9 8.8
2015-Aug-20 09:33N 35°02' E 140°13'19 9.3
2015-Aug-20 07:32N 35°15' E 140°30'1010.5
2015-Aug-20 06:33N 35°23' E 140°37'1010.4
2015-Aug-20 05:33N 35°31' E 140°45'1210.3
2015-Aug-20 04:25N 35°41' E 140°54'  
Track history (hours):
 
Tides and Currents Weather Stations Pressure Air Temp Water Temp Dewpoint Dewpoint Depression Visibility Wind Speed Wind Dir Waves Ship Positions

Ryoho Maru No.2

Last reported at 2015-Aug-26 19:26 UTC. Time now 2015-Sep-01 22:20 UTC.
Position N 35°41' E 140°54'.

Length 57 m; draft 4 m.

Type: Tanker. MMSI: 431001062.

Date/timePositionNaut miles runAvg speedWind from/ knotsBaromVisibWave heightAir tempDewpointWater temp
2015-Aug-26 19:26N 35°41' E 140°54'7 8.0
2015-Aug-26 18:33N 35°36' E 140°49'9 8.6
2015-Aug-26 17:29N 35°28' E 140°42'9 8.8
2015-Aug-26 16:25N 35°21' E 140°35'8 9.4
2015-Aug-26 15:32N 35°14' E 140°29'19 9.7
2015-Aug-26 13:34N 35°01' E 140°12'9 8.7
2015-Aug-26 12:33N 34°56' E 140°03'14 7.1
2015-Aug-26 10:32N 34°55' E 139°46'9 9.0
2015-Aug-26 09:33N 35°03' E 139°44'1110.6
2015-Aug-26 08:34N 35°14' E 139°47'1010.0
2015-Aug-26 07:33N 35°23' E 139°43'10 9.9
2015-Aug-26 06:33N 35°30' E 139°52'6 5.3
2015-Aug-26 05:22N 35°29' E 139°60'0 0.0
2015-Aug-26 04:28N 35°29' E 139°60'0 0.0
2015-Aug-26 03:28N 35°29' E 139°60'0 0.0
2015-Aug-26 02:28N 35°29' E 139°60'0 0.0
2015-Aug-26 01:22N 35°29' E 139°60'0 0.0
2015-Aug-26 00:25N 35°29' E 139°60'0 0.1
2015-Aug-25 23:28N 35°29' E 139°60'0 0.0
2015-Aug-25 22:25N 35°29' E 139°60'0 0.0
2015-Aug-25 21:28N 35°29' E 139°60'0 0.0
2015-Aug-25 20:19N 35°29' E 139°59'0 0.0
2015-Aug-25 19:31N 35°29' E 139°59'0 0.0
2015-Aug-25 18:31N 35°29' E 139°59'0 0.0
2015-Aug-25 17:31N 35°29' E 139°59'0 0.0
2015-Aug-25 16:28N 35°29' E 139°59'0 0.0
2015-Aug-25 15:28N 35°29' E 139°59'0 0.0
2015-Aug-25 14:28N 35°29' E 139°59'0 0.0
2015-Aug-25 13:31N 35°29' E 139°59'0 0.0
2015-Aug-25 12:28N 35°29' E 139°59'2 1.7
2015-Aug-25 11:30N 35°28' E 140°01'0 0.0
2015-Aug-25 10:30N 35°28' E 140°01'0 0.0
2015-Aug-25 09:30N 35°28' E 140°01'0 0.0
2015-Aug-25 08:18N 35°28' E 140°01'0 0.0
2015-Aug-25 07:30N 35°28' E 140°01'0 0.0
2015-Aug-25 06:30N 35°28' E 140°01'1 0.8
2015-Aug-25 05:33N 35°29' E 140°01'10 9.7
2015-Aug-25 04:33N 35°30' E 139°49'3 3.2
2015-Aug-25 03:33N 35°32' E 139°45'0 0.0
2015-Aug-25 02:33N 35°32' E 139°45'0 0.0
2015-Aug-25 01:33N 35°32' E 139°45'0 0.0
2015-Aug-25 00:33N 35°32' E 139°45'1 1.3
2015-Aug-24 23:33N 35°31' E 139°46'3 2.5
2015-Aug-24 22:31N 35°30' E 139°49'0 0.0
2015-Aug-24 21:31N 35°30' E 139°49'0 0.0
2015-Aug-24 20:28N 35°30' E 139°49'0 0.0
2015-Aug-24 19:31N 35°30' E 139°49'0 0.0
2015-Aug-24 18:28N 35°30' E 139°49'0 0.0
2015-Aug-24 17:31N 35°30' E 139°49'0 0.0
2015-Aug-24 16:31N 35°30' E 139°49'0 0.0
2015-Aug-24 15:31N 35°30' E 139°49'0 0.0
2015-Aug-24 14:25N 35°30' E 139°49'0 0.0
2015-Aug-24 13:31N 35°30' E 139°49'0 0.0
2015-Aug-24 12:25N 35°30' E 139°49'0 0.0
2015-Aug-24 11:28N 35°30' E 139°49'0 0.0
2015-Aug-24 10:28N 35°30' E 139°49'0 0.0
2015-Aug-24 09:31N 35°30' E 139°49'0 0.0
2015-Aug-24 08:31N 35°30' E 139°49'0 0.0
2015-Aug-24 07:31N 35°30' E 139°49'0 0.0
2015-Aug-24 06:31N 35°30' E 139°49'0 0.0
2015-Aug-24 05:31N 35°30' E 139°49'0 0.0
2015-Aug-24 04:28N 35°30' E 139°49'0 0.0
2015-Aug-24 03:31N 35°30' E 139°49'0 0.0
2015-Aug-24 02:31N 35°30' E 139°49'0 0.0
2015-Aug-24 01:31N 35°30' E 139°49'0 0.0
2015-Aug-24 00:31N 35°30' E 139°49'0 0.0
2015-Aug-23 23:31N 35°30' E 139°49'0 0.0
2015-Aug-23 22:31N 35°30' E 139°49'0 0.0
2015-Aug-23 21:28N 35°30' E 139°49'0 0.0
2015-Aug-23 20:31N 35°30' E 139°49'0 0.0
2015-Aug-23 19:31N 35°30' E 139°49'0 0.0
2015-Aug-23 18:31N 35°30' E 139°49'0 0.0
2015-Aug-23 17:28N 35°30' E 139°49'0 0.0
2015-Aug-23 16:28N 35°30' E 139°49'0 0.0
2015-Aug-23 15:31N 35°30' E 139°49'0 0.0
2015-Aug-23 14:28N 35°30' E 139°49'0 0.0
2015-Aug-23 13:22N 35°30' E 139°49'0 0.0
2015-Aug-23 12:28N 35°30' E 139°49'0 0.0
2015-Aug-23 11:31N 35°30' E 139°49'0 0.0
2015-Aug-23 10:31N 35°30' E 139°49'0 0.0
2015-Aug-23 09:28N 35°30' E 139°49'0 0.0
2015-Aug-23 08:28N 35°30' E 139°49'0 0.0
2015-Aug-23 07:28N 35°30' E 139°49'0 0.0
2015-Aug-23 06:31N 35°30' E 139°49'0 0.0
2015-Aug-23 05:31N 35°30' E 139°49'0 0.0
2015-Aug-23 04:28N 35°30' E 139°49'0 0.0
2015-Aug-23 03:31N 35°30' E 139°49'0 0.0
2015-Aug-23 02:28N 35°30' E 139°49'0 0.0
2015-Aug-23 01:25N 35°30' E 139°49'0 0.0
2015-Aug-23 00:16N 35°30' E 139°49'0 0.0
2015-Aug-22 23:28N 35°30' E 139°49'0 0.0
2015-Aug-22 22:13N 35°30' E 139°49'0 0.0
2015-Aug-22 21:25N 35°30' E 139°49'0 0.0
2015-Aug-22 20:28N 35°30' E 139°49'0 0.0
2015-Aug-22 19:31N 35°30' E 139°49'0 0.0
2015-Aug-22 18:28N 35°30' E 139°49'0 0.0
2015-Aug-22 17:25N 35°30' E 139°49'0 0.0
2015-Aug-22 16:31N 35°30' E 139°49'0 0.0
2015-Aug-22 15:28N 35°30' E 139°49'0 0.0
2015-Aug-22 14:28N 35°30' E 139°49'0 0.0
2015-Aug-22 13:28N 35°30' E 139°49'0 0.0
2015-Aug-22 12:28N 35°30' E 139°50'0 0.0
2015-Aug-22 11:28N 35°30' E 139°50'0 0.0
2015-Aug-22 10:28N 35°30' E 139°50'0 0.0
2015-Aug-22 09:28N 35°30' E 139°50'0 0.0
2015-Aug-22 08:28N 35°30' E 139°50'0 0.0
2015-Aug-22 07:28N 35°30' E 139°50'0 0.0
2015-Aug-22 06:28N 35°30' E 139°50'0 0.0
2015-Aug-22 05:28N 35°30' E 139°50'0 0.0
2015-Aug-22 04:10N 35°30' E 139°50'0 0.0
2015-Aug-22 03:25N 35°30' E 139°50'0 0.0
2015-Aug-22 02:28N 35°30' E 139°50'0 0.0
2015-Aug-22 01:28N 35°30' E 139°50'0 0.0
2015-Aug-22 00:22N 35°30' E 139°50'0 0.0
2015-Aug-21 23:28N 35°30' E 139°50'0 0.0
2015-Aug-21 22:31N 35°30' E 139°50'0 0.0
2015-Aug-21 21:31N 35°30' E 139°50'0 0.0
2015-Aug-21 20:28N 35°30' E 139°50'0 0.0
2015-Aug-21 19:16N 35°30' E 139°50'0 0.0
2015-Aug-21 18:28N 35°30' E 139°50'0 0.0
2015-Aug-21 17:31N 35°30' E 139°50'0 0.0
2015-Aug-21 16:25N 35°30' E 139°50'0 0.0
2015-Aug-21 15:22N 35°30' E 139°50'0 0.0
2015-Aug-21 14:28N 35°30' E 139°50'0 0.0
2015-Aug-21 13:22N 35°30' E 139°50'0 0.0
2015-Aug-21 12:31N 35°30' E 139°50'0 0.0
2015-Aug-21 11:31N 35°30' E 139°50'0 0.0
2015-Aug-21 10:31N 35°30' E 139°50'0 0.0
2015-Aug-21 09:31N 35°30' E 139°50'0 0.0
2015-Aug-21 08:31N 35°30' E 139°50'0 0.0
2015-Aug-21 07:31N 35°30' E 139°49'0 0.0
2015-Aug-21 06:31N 35°30' E 139°49'0 0.0
2015-Aug-21 05:31N 35°30' E 139°49'0 0.0
2015-Aug-21 04:28N 35°30' E 139°49'0 0.0
2015-Aug-21 03:31N 35°30' E 139°49'0 0.0
2015-Aug-21 02:28N 35°30' E 139°49'0 0.0
2015-Aug-21 01:31N 35°30' E 139°49'0 0.0
2015-Aug-21 00:31N 35°30' E 139°49'0 0.0
2015-Aug-20 23:31N 35°30' E 139°49'0 0.0
2015-Aug-20 22:25N 35°30' E 139°49'0 0.0
2015-Aug-20 21:28N 35°30' E 139°49'0 0.0
2015-Aug-20 20:28N 35°30' E 139°49'0 0.0
2015-Aug-20 19:31N 35°30' E 139°49'0 0.0
2015-Aug-20 18:31N 35°30' E 139°49'0 0.0
2015-Aug-20 17:31N 35°30' E 139°49'0 0.0
2015-Aug-20 16:28N 35°30' E 139°49'6 6.9
2015-Aug-20 15:33N 35°24' E 139°46'9 8.7
2015-Aug-20 14:34N 35°16' E 139°47'9 9.4
2015-Aug-20 13:34N 35°06' E 139°46'10 9.9
2015-Aug-20 12:33N 34°56' E 139°44'10 8.4
2015-Aug-20 11:19N 34°53' E 139°56'7 9.7
2015-Aug-20 10:34N 34°57' E 140°04'9 8.8
2015-Aug-20 09:33N 35°02' E 140°13'19 9.3
2015-Aug-20 07:32N 35°15' E 140°30'1010.5
2015-Aug-20 06:33N 35°23' E 140°37'1010.4
2015-Aug-20 05:33N 35°31' E 140°45'1210.3
2015-Aug-20 04:25N 35°41' E 140°54'  

Dump ship's entire track history